sensor_id;sensor_type;location;lat;lon;timestamp;pressure;altitude;pressure_sealevel;temperature;humidity
60099;BME280;62818;49.394;8.686;2024-03-17T00:01:44;101194.19;;;8.64;100.00
60099;BME280;62818;49.394;8.686;2024-03-17T00:06:45;101197.78;;;8.72;100.00
60099;BME280;62818;49.394;8.686;2024-03-17T00:11:45;101223.72;;;8.21;100.00
60099;BME280;62818;49.394;8.686;2024-03-17T00:16:46;101219.41;;;7.82;100.00
60099;BME280;62818;49.394;8.686;2024-03-17T00:21:46;101204.84;;;8.81;100.00
60099;BME280;62818;49.394;8.686;2024-03-17T00:26:47;101198.16;;;8.41;100.00
60099;BME280;62818;49.394;8.686;2024-03-17T00:31:47;101200.88;;;7.53;100.00
60099;BME280;62818;49.394;8.686;2024-03-17T00:36:47;101194.50;;;8.51;100.00
60099;BME280;62818;49.394;8.686;2024-03-17T00:41:48;101186.19;;;7.79;100.00
60099;BME280;62818;49.394;8.686;2024-03-17T00:46:49;101176.41;;;7.41;100.00
60099;BME280;62818;49.394;8.686;2024-03-17T00:51:49;101172.56;;;7.65;100.00
60099;BME280;62818;49.394;8.686;2024-03-17T00:56:50;101172.03;;;7.99;100.00
60099;BME280;62818;49.394;8.686;2024-03-17T01:01:51;101169.44;;;7.21;100.00
60099;BME280;62818;49.394;8.686;2024-03-17T01:06:51;101164.22;;;7.69;100.00
60099;BME280;62818;49.394;8.686;2024-03-17T01:11:52;101152.13;;;8.89;100.00
60099;BME280;62818;49.394;8.686;2024-03-17T01:16:52;101146.31;;;7.44;100.00
60099;BME280;62818;49.394;8.686;2024-03-17T01:21:52;101156.94;;;7.23;100.00
60099;BME280;62818;49.394;8.686;2024-03-17T01:26:53;101152.78;;;7.30;100.00
60099;BME280;62818;49.394;8.686;2024-03-17T01:31:53;101136.88;;;7.61;100.00
60099;BME280;62818;49.394;8.686;2024-03-17T01:36:54;101118.66;;;7.96;100.00
60099;BME280;62818;49.394;8.686;2024-03-17T01:41:54;101133.63;;;7.38;100.00
60099;BME280;62818;49.394;8.686;2024-03-17T01:46:55;101123.28;;;6.87;100.00
60099;BME280;62818;49.394;8.686;2024-03-17T01:51:56;101113.38;;;7.96;100.00
60099;BME280;62818;49.394;8.686;2024-03-17T01:56:56;101113.16;;;7.80;100.00
60099;BME280;62818;49.394;8.686;2024-03-17T02:01:57;101106.53;;;8.22;100.00
60099;BME280;62818;49.394;8.686;2024-03-17T02:06:57;101092.00;;;8.08;100.00
60099;BME280;62818;49.394;8.686;2024-03-17T02:11:57;101099.75;;;8.00;100.00
60099;BME280;62818;49.394;8.686;2024-03-17T02:16:58;101096.19;;;7.54;100.00
60099;BME280;62818;49.394;8.686;2024-03-17T02:21:59;101085.22;;;7.48;100.00
60099;BME280;62818;49.394;8.686;2024-03-17T02:26:59;101078.13;;;7.39;100.00
60099;BME280;62818;49.394;8.686;2024-03-17T02:32:01;101080.50;;;7.62;100.00
60099;BME280;62818;49.394;8.686;2024-03-17T02:37:06;101072.88;;;7.68;100.00
60099;BME280;62818;49.394;8.686;2024-03-17T02:42:07;101072.31;;;7.26;100.00
60099;BME280;62818;49.394;8.686;2024-03-17T02:47:09;101069.34;;;7.87;100.00
60099;BME280;62818;49.394;8.686;2024-03-17T02:52:10;101077.00;;;7.13;100.00
60099;BME280;62818;49.394;8.686;2024-03-17T02:57:11;101063.00;;;7.41;100.00
60099;BME280;62818;49.394;8.686;2024-03-17T03:02:12;101060.31;;;7.03;100.00
60099;BME280;62818;49.394;8.686;2024-03-17T03:07:12;101071.59;;;7.24;100.00
60099;BME280;62818;49.394;8.686;2024-03-17T03:12:12;101078.72;;;7.62;100.00
60099;BME280;62818;49.394;8.686;2024-03-17T03:17:13;101082.09;;;7.05;100.00
60099;BME280;62818;49.394;8.686;2024-03-17T03:22:13;101075.00;;;6.87;100.00
60099;BME280;62818;49.394;8.686;2024-03-17T03:27:13;101085.50;;;7.45;100.00
60099;BME280;62818;49.394;8.686;2024-03-17T03:32:14;101085.91;;;7.51;100.00
60099;BME280;62818;49.394;8.686;2024-03-17T03:37:14;101079.84;;;8.35;100.00
60099;BME280;62818;49.394;8.686;2024-03-17T03:42:15;101079.91;;;7.96;100.00
60099;BME280;62818;49.394;8.686;2024-03-17T03:47:15;101078.53;;;8.48;100.00
60099;BME280;62818;49.394;8.686;2024-03-17T03:52:16;101077.56;;;7.65;100.00
60099;BME280;62818;49.394;8.686;2024-03-17T03:57:16;101085.78;;;6.74;100.00
60099;BME280;62818;49.394;8.686;2024-03-17T04:02:16;101067.00;;;7.36;100.00
60099;BME280;62818;49.394;8.686;2024-03-17T04:07:17;101077.59;;;7.45;100.00
60099;BME280;62818;49.394;8.686;2024-03-17T04:12:17;101071.31;;;7.27;100.00
60099;BME280;62818;49.394;8.686;2024-03-17T04:17:18;101075.66;;;6.79;100.00
60099;BME280;62818;49.394;8.686;2024-03-17T04:22:21;101058.41;;;7.34;100.00
60099;BME280;62818;49.394;8.686;2024-03-17T04:27:22;101070.03;;;8.08;100.00
60099;BME280;62818;49.394;8.686;2024-03-17T04:32:23;101072.53;;;7.14;100.00
60099;BME280;62818;49.394;8.686;2024-03-17T04:37:24;101070.03;;;7.89;100.00
60099;BME280;62818;49.394;8.686;2024-03-17T04:42:24;101067.25;;;8.00;100.00
60099;BME280;62818;49.394;8.686;2024-03-17T04:47:25;101074.72;;;6.80;100.00
60099;BME280;62818;49.394;8.686;2024-03-17T04:52:25;101070.34;;;7.86;100.00
60099;BME280;62818;49.394;8.686;2024-03-17T04:57:25;101074.44;;;6.93;100.00
60099;BME280;62818;49.394;8.686;2024-03-17T05:02:26;101068.69;;;7.66;100.00
60099;BME280;62818;49.394;8.686;2024-03-17T05:07:27;101070.91;;;7.22;100.00
60099;BME280;62818;49.394;8.686;2024-03-17T05:12:28;101063.69;;;7.34;100.00
60099;BME280;62818;49.394;8.686;2024-03-17T05:17:28;101062.28;;;7.97;100.00
60099;BME280;62818;49.394;8.686;2024-03-17T05:22:28;101068.13;;;7.72;100.00
60099;BME280;62818;49.394;8.686;2024-03-17T05:27:29;101052.34;;;8.28;100.00
60099;BME280;62818;49.394;8.686;2024-03-17T05:32:29;101053.94;;;7.82;100.00
60099;BME280;62818;49.394;8.686;2024-03-17T05:37:29;101064.75;;;6.93;100.00
60099;BME280;62818;49.394;8.686;2024-03-17T05:42:30;101059.50;;;7.89;100.00
60099;BME280;62818;49.394;8.686;2024-03-17T05:47:32;101056.72;;;7.04;100.00
60099;BME280;62818;49.394;8.686;2024-03-17T05:52:32;101065.75;;;7.88;100.00
60099;BME280;62818;49.394;8.686;2024-03-17T05:57:33;101063.06;;;8.26;100.00
60099;BME280;62818;49.394;8.686;2024-03-17T06:02:33;101072.88;;;7.68;100.00
60099;BME280;62818;49.394;8.686;2024-03-17T06:07:34;101063.56;;;8.39;100.00
60099;BME280;62818;49.394;8.686;2024-03-17T06:12:34;101077.47;;;8.41;100.00
60099;BME280;62818;49.394;8.686;2024-03-17T06:17:35;101073.81;;;7.19;100.00
60099;BME280;62818;49.394;8.686;2024-03-17T06:22:35;101070.53;;;8.67;100.00
60099;BME280;62818;49.394;8.686;2024-03-17T06:27:35;101070.56;;;8.21;100.00
60099;BME280;62818;49.394;8.686;2024-03-17T06:32:36;101062.13;;;7.89;100.00
60099;BME280;62818;49.394;8.686;2024-03-17T06:37:36;101056.91;;;8.35;100.00
60099;BME280;62818;49.394;8.686;2024-03-17T06:42:37;101058.84;;;9.50;100.00
60099;BME280;62818;49.394;8.686;2024-03-17T06:47:38;101063.31;;;8.33;100.00
60099;BME280;62818;49.394;8.686;2024-03-17T06:52:39;101062.09;;;9.09;100.00
60099;BME280;62818;49.394;8.686;2024-03-17T06:57:43;101054.41;;;8.88;100.00
60099;BME280;62818;49.394;8.686;2024-03-17T07:02:44;101048.72;;;9.28;100.00
60099;BME280;62818;49.394;8.686;2024-03-17T07:07:44;101043.03;;;8.87;100.00
60099;BME280;62818;49.394;8.686;2024-03-17T07:12:45;101043.06;;;9.58;100.00
60099;BME280;62818;49.394;8.686;2024-03-17T07:17:45;101037.16;;;9.64;100.00
60099;BME280;62818;49.394;8.686;2024-03-17T07:22:46;101046.59;;;10.69;100.00
60099;BME280;62818;49.394;8.686;2024-03-17T07:27:48;101046.91;;;11.08;100.00
60099;BME280;62818;49.394;8.686;2024-03-17T07:32:49;101049.09;;;10.11;100.00
60099;BME280;62818;49.394;8.686;2024-03-17T07:37:49;101068.25;;;9.62;100.00
60099;BME280;62818;49.394;8.686;2024-03-17T07:42:50;101057.03;;;10.11;100.00
60099;BME280;62818;49.394;8.686;2024-03-17T07:47:50;101048.84;;;10.22;100.00
60099;BME280;62818;49.394;8.686;2024-03-17T07:52:50;101038.75;;;10.60;100.00
60099;BME280;62818;49.394;8.686;2024-03-17T07:57:51;101034.03;;;11.94;100.00
60099;BME280;62818;49.394;8.686;2024-03-17T08:02:51;101041.81;;;12.58;100.00
60099;BME280;62818;49.394;8.686;2024-03-17T08:07:52;101057.22;;;11.59;100.00
60099;BME280;62818;49.394;8.686;2024-03-17T08:12:52;101065.06;;;12.09;100.00
60099;BME280;62818;49.394;8.686;2024-03-17T08:17:53;101076.38;;;10.97;100.00
60099;BME280;62818;49.394;8.686;2024-03-17T08:22:53;101071.22;;;11.94;100.00
60099;BME280;62818;49.394;8.686;2024-03-17T08:27:53;101075.13;;;11.41;100.00
60099;BME280;62818;49.394;8.686;2024-03-17T08:32:54;101062.94;;;12.51;100.00
60099;BME280;62818;49.394;8.686;2024-03-17T08:37:54;101063.13;;;13.27;100.00
60099;BME280;62818;49.394;8.686;2024-03-17T08:42:55;101048.19;;;12.41;100.00
60099;BME280;62818;49.394;8.686;2024-03-17T08:47:55;101045.97;;;11.49;100.00
60099;BME280;62818;49.394;8.686;2024-03-17T08:52:56;101036.91;;;11.02;100.00
60099;BME280;62818;49.394;8.686;2024-03-17T08:57:56;101033.59;;;11.00;100.00
60099;BME280;62818;49.394;8.686;2024-03-17T09:02:56;101040.34;;;11.68;100.00
60099;BME280;62818;49.394;8.686;2024-03-17T09:07:57;101039.66;;;11.90;100.00
60099;BME280;62818;49.394;8.686;2024-03-17T09:12:57;101035.22;;;12.46;100.00
60099;BME280;62818;49.394;8.686;2024-03-17T09:17:57;101023.94;;;12.44;100.00
60099;BME280;62818;49.394;8.686;2024-03-17T09:22:58;101017.50;;;15.14;100.00
60099;BME280;62818;49.394;8.686;2024-03-17T09:28:04;101019.44;;;15.62;100.00
60099;BME280;62818;49.394;8.686;2024-03-17T09:33:05;101019.19;;;16.06;100.00
60099;BME280;62818;49.394;8.686;2024-03-17T09:38:05;101026.00;;;13.86;100.00
60099;BME280;62818;49.394;8.686;2024-03-17T09:43:07;101030.66;;;13.92;100.00
60099;BME280;62818;49.394;8.686;2024-03-17T09:48:14;101023.22;;;14.17;100.00
60099;BME280;62818;49.394;8.686;2024-03-17T09:53:25;101022.91;;;13.97;100.00
60099;BME280;62818;49.394;8.686;2024-03-17T09:58:27;101028.16;;;13.30;100.00
60099;BME280;62818;49.394;8.686;2024-03-17T10:09:15;101028.13;;;14.71;100.00
60099;BME280;62818;49.394;8.686;2024-03-17T10:14:25;101027.75;;;14.16;100.00
60099;BME280;62818;49.394;8.686;2024-03-17T10:19:26;101022.28;;;13.58;100.00
60099;BME280;62818;49.394;8.686;2024-03-17T10:24:28;101021.81;;;14.06;100.00
60099;BME280;62818;49.394;8.686;2024-03-17T10:29:29;101028.13;;;14.71;100.00
60099;BME280;62818;49.394;8.686;2024-03-17T10:34:35;101024.72;;;14.99;100.00
60099;BME280;62818;49.394;8.686;2024-03-17T10:39:37;101028.09;;;15.43;100.00
60099;BME280;62818;49.394;8.686;2024-03-17T10:44:40;101022.31;;;15.39;100.00
60099;BME280;62818;49.394;8.686;2024-03-17T10:49:45;101021.75;;;14.72;100.00
60099;BME280;62818;49.394;8.686;2024-03-17T10:54:47;101024.16;;;15.03;100.00
60099;BME280;62818;49.394;8.686;2024-03-17T10:59:54;101012.63;;;15.81;100.00
60099;BME280;62818;49.394;8.686;2024-03-17T11:04:56;101012.94;;;15.29;100.00
60099;BME280;62818;49.394;8.686;2024-03-17T11:09:59;101006.69;;;14.50;100.00
60099;BME280;62818;49.394;8.686;2024-03-17T11:20:21;100991.81;;;15.76;100.00
60099;BME280;62818;49.394;8.686;2024-03-17T11:35:47;100973.38;;;15.60;97.41
60099;BME280;62818;49.394;8.686;2024-03-17T11:40:48;100973.53;;;15.80;97.91
60099;BME280;62818;49.394;8.686;2024-03-17T11:45:54;100979.97;;;16.19;94.09
60099;BME280;62818;49.394;8.686;2024-03-17T11:55:28;100968.00;;;15.81;95.15
60099;BME280;62818;49.394;8.686;2024-03-17T12:00:28;100971.72;;;15.87;99.75
60099;BME280;62818;49.394;8.686;2024-03-17T12:05:29;100963.97;;;15.43;97.29
60099;BME280;62818;49.394;8.686;2024-03-17T12:10:31;100960.31;;;15.99;98.41
60099;BME280;62818;49.394;8.686;2024-03-17T12:15:31;100958.25;;;15.25;96.17
60099;BME280;62818;49.394;8.686;2024-03-17T12:20:32;100959.75;;;15.76;92.51
60099;BME280;62818;49.394;8.686;2024-03-17T12:25:33;100965.25;;;15.68;89.86
60099;BME280;62818;49.394;8.686;2024-03-17T12:30:34;100952.50;;;14.64;94.28
60099;BME280;62818;49.394;8.686;2024-03-17T12:35:35;100934.84;;;15.06;99.40
60099;BME280;62818;49.394;8.686;2024-03-17T12:40:35;100929.25;;;15.64;94.13
60099;BME280;62818;49.394;8.686;2024-03-17T12:45:36;100923.16;;;15.77;97.94
60099;BME280;62818;49.394;8.686;2024-03-17T12:50:36;100908.47;;;14.96;100.00
60099;BME280;62818;49.394;8.686;2024-03-17T12:55:37;100902.69;;;14.21;100.00
60099;BME280;62818;49.394;8.686;2024-03-17T13:01:03;100909.03;;;14.92;100.00
60099;BME280;62818;49.394;8.686;2024-03-17T13:06:05;100906.09;;;15.29;96.17
60099;BME280;62818;49.394;8.686;2024-03-17T13:11:08;100894.22;;;16.27;100.00
60099;BME280;62818;49.394;8.686;2024-03-17T13:16:10;100902.91;;;16.02;95.94
60099;BME280;62818;49.394;8.686;2024-03-17T13:21:12;100903.94;;;15.39;91.98
60099;BME280;62818;49.394;8.686;2024-03-17T13:26:13;100900.75;;;15.29;96.42
60099;BME280;62818;49.394;8.686;2024-03-17T13:31:13;100891.69;;;15.51;92.79
60099;BME280;62818;49.394;8.686;2024-03-17T13:36:14;100883.25;;;14.77;96.36
60099;BME280;62818;49.394;8.686;2024-03-17T13:41:16;100870.66;;;14.93;96.54
60099;BME280;62818;49.394;8.686;2024-03-17T13:46:16;100870.53;;;15.22;96.09
60099;BME280;62818;49.394;8.686;2024-03-17T13:51:17;100861.03;;;15.19;98.63
60099;BME280;62818;49.394;8.686;2024-03-17T13:56:17;100853.13;;;14.62;100.00
60099;BME280;62818;49.394;8.686;2024-03-17T14:01:17;100851.16;;;14.71;98.83
60099;BME280;62818;49.394;8.686;2024-03-17T14:06:18;100841.78;;;15.03;98.96
60099;BME280;62818;49.394;8.686;2024-03-17T14:11:19;100840.81;;;15.59;100.00
60099;BME280;62818;49.394;8.686;2024-03-17T14:16:19;100830.88;;;15.46;93.65
60099;BME280;62818;49.394;8.686;2024-03-17T14:21:20;100815.06;;;15.24;95.90
60099;BME280;62818;49.394;8.686;2024-03-17T14:26:22;100824.78;;;15.59;91.38
60099;BME280;62818;49.394;8.686;2024-03-17T14:31:23;100826.91;;;15.77;94.82
60099;BME280;62818;49.394;8.686;2024-03-17T14:36:23;100829.25;;;15.52;91.33
60099;BME280;62818;49.394;8.686;2024-03-17T14:41:30;100835.78;;;15.77;88.92
60099;BME280;62818;49.394;8.686;2024-03-17T14:46:31;100823.59;;;15.68;89.95
60099;BME280;62818;49.394;8.686;2024-03-17T14:51:32;100805.38;;;15.44;90.80
60099;BME280;62818;49.394;8.686;2024-03-17T14:56:32;100807.09;;;15.30;92.43
60099;BME280;62818;49.394;8.686;2024-03-17T15:01:33;100824.72;;;15.52;91.95
60099;BME280;62818;49.394;8.686;2024-03-17T15:06:33;100812.25;;;16.13;85.14
60099;BME280;62818;49.394;8.686;2024-03-17T15:11:34;100802.09;;;15.89;83.55
60099;BME280;62818;49.394;8.686;2024-03-17T15:16:34;100790.59;;;15.48;92.45
60099;BME280;62818;49.394;8.686;2024-03-17T15:21:34;100789.97;;;16.54;84.82
60099;BME280;62818;49.394;8.686;2024-03-17T15:26:35;100785.22;;;17.08;82.52
60099;BME280;62818;49.394;8.686;2024-03-17T15:31:36;100794.56;;;15.31;89.97
60099;BME280;62818;49.394;8.686;2024-03-17T15:36:36;100780.66;;;15.42;92.75
60099;BME280;62818;49.394;8.686;2024-03-17T15:41:37;100788.78;;;15.00;94.90
60099;BME280;62818;49.394;8.686;2024-03-17T15:46:37;100772.44;;;14.81;95.04
60099;BME280;62818;49.394;8.686;2024-03-17T15:51:38;100766.09;;;14.61;97.38
60099;BME280;62818;49.394;8.686;2024-03-17T15:56:38;100757.47;;;14.38;96.32
60099;BME280;62818;49.394;8.686;2024-03-17T16:01:39;100771.44;;;14.61;96.67
60099;BME280;62818;49.394;8.686;2024-03-17T16:06:40;100761.66;;;14.68;100.00
60099;BME280;62818;49.394;8.686;2024-03-17T16:11:41;100755.56;;;14.53;99.76
60099;BME280;62818;49.394;8.686;2024-03-17T16:16:41;100759.44;;;14.51;100.00
60099;BME280;62818;49.394;8.686;2024-03-17T16:21:42;100750.25;;;14.53;100.00
60099;BME280;62818;49.394;8.686;2024-03-17T16:26:44;100754.81;;;14.38;100.00
60099;BME280;62818;49.394;8.686;2024-03-17T16:31:47;100746.81;;;14.02;100.00
60099;BME280;62818;49.394;8.686;2024-03-17T16:36:49;100730.50;;;13.91;100.00
60099;BME280;62818;49.394;8.686;2024-03-17T16:41:49;100735.53;;;14.00;100.00
60099;BME280;62818;49.394;8.686;2024-03-17T16:52:06;100728.72;;;13.62;100.00
60099;BME280;62818;49.394;8.686;2024-03-17T16:57:06;100725.03;;;13.78;100.00
60099;BME280;62818;49.394;8.686;2024-03-17T17:02:17;100724.88;;;13.65;100.00
60099;BME280;62818;49.394;8.686;2024-03-17T17:07:18;100728.72;;;13.77;100.00
60099;BME280;62818;49.394;8.686;2024-03-17T17:12:20;100731.09;;;13.72;100.00
60099;BME280;62818;49.394;8.686;2024-03-17T17:17:20;100728.84;;;13.54;100.00
60099;BME280;62818;49.394;8.686;2024-03-17T17:22:20;100719.97;;;13.32;100.00
60099;BME280;62818;49.394;8.686;2024-03-17T17:27:21;100723.09;;;13.21;100.00
60099;BME280;62818;49.394;8.686;2024-03-17T17:32:22;100735.47;;;13.14;100.00
60099;BME280;62818;49.394;8.686;2024-03-17T17:37:23;100718.94;;;13.19;100.00
60099;BME280;62818;49.394;8.686;2024-03-17T17:42:23;100713.16;;;13.30;100.00
60099;BME280;62818;49.394;8.686;2024-03-17T17:47:24;100718.88;;;13.12;100.00
60099;BME280;62818;49.394;8.686;2024-03-17T17:52:24;100710.72;;;12.91;100.00
60099;BME280;62818;49.394;8.686;2024-03-17T17:57:25;100710.19;;;12.81;100.00
60099;BME280;62818;49.394;8.686;2024-03-17T18:02:26;100702.63;;;12.70;100.00
60099;BME280;62818;49.394;8.686;2024-03-17T18:07:29;100711.34;;;12.64;100.00
60099;BME280;62818;49.394;8.686;2024-03-17T18:12:30;100710.81;;;12.69;100.00
60099;BME280;62818;49.394;8.686;2024-03-17T18:17:30;100711.88;;;12.59;100.00
60099;BME280;62818;49.394;8.686;2024-03-17T18:22:31;100712.47;;;12.47;100.00
60099;BME280;62818;49.394;8.686;2024-03-17T18:27:32;100713.59;;;12.38;100.00
60099;BME280;62818;49.394;8.686;2024-03-17T18:32:32;100711.19;;;12.43;100.00
60099;BME280;62818;49.394;8.686;2024-03-17T18:37:32;100714.03;;;12.19;100.00
60099;BME280;62818;49.394;8.686;2024-03-17T18:42:34;100714.75;;;12.35;100.00
60099;BME280;62818;49.394;8.686;2024-03-17T18:47:35;100716.25;;;12.38;100.00
60099;BME280;62818;49.394;8.686;2024-03-17T18:52:38;100725.34;;;12.58;100.00
60099;BME280;62818;49.394;8.686;2024-03-17T18:57:38;100718.91;;;12.38;100.00
60099;BME280;62818;49.394;8.686;2024-03-17T19:02:46;100717.56;;;12.34;100.00
60099;BME280;62818;49.394;8.686;2024-03-17T19:07:50;100724.44;;;12.28;100.00
60099;BME280;62818;49.394;8.686;2024-03-17T19:12:51;100725.50;;;12.42;100.00
60099;BME280;62818;49.394;8.686;2024-03-17T19:17:53;100730.19;;;12.40;100.00
60099;BME280;62818;49.394;8.686;2024-03-17T19:22:53;100714.28;;;12.32;100.00
60099;BME280;62818;49.394;8.686;2024-03-17T19:27:55;100714.22;;;12.77;100.00
60099;BME280;62818;49.394;8.686;2024-03-17T19:32:55;100709.22;;;12.59;100.00
60099;BME280;62818;49.394;8.686;2024-03-17T19:37:56;100706.41;;;12.38;100.00
60099;BME280;62818;49.394;8.686;2024-03-17T19:42:56;100701.56;;;12.79;100.00
60099;BME280;62818;49.394;8.686;2024-03-17T19:47:56;100686.63;;;12.41;100.00
60099;BME280;62818;49.394;8.686;2024-03-17T19:52:57;100684.03;;;12.33;100.00
60099;BME280;62818;49.394;8.686;2024-03-17T19:57:57;100685.44;;;12.21;100.00
60099;BME280;62818;49.394;8.686;2024-03-17T20:02:58;100695.13;;;12.36;100.00
60099;BME280;62818;49.394;8.686;2024-03-17T20:07:58;100688.00;;;12.37;100.00
60099;BME280;62818;49.394;8.686;2024-03-17T20:12:59;100680.91;;;12.29;100.00
60099;BME280;62818;49.394;8.686;2024-03-17T20:18:00;100679.72;;;12.32;100.00
60099;BME280;62818;49.394;8.686;2024-03-17T20:23:03;100677.44;;;12.29;100.00
60099;BME280;62818;49.394;8.686;2024-03-17T20:28:03;100669.81;;;12.26;100.00
60099;BME280;62818;49.394;8.686;2024-03-17T20:33:04;100663.06;;;12.38;100.00
60099;BME280;62818;49.394;8.686;2024-03-17T20:38:05;100665.25;;;12.34;100.00
60099;BME280;62818;49.394;8.686;2024-03-17T20:43:07;100669.59;;;12.50;100.00
60099;BME280;62818;49.394;8.686;2024-03-17T20:48:08;100662.28;;;12.67;100.00
60099;BME280;62818;49.394;8.686;2024-03-17T20:53:08;100657.19;;;11.82;100.00
60099;BME280;62818;49.394;8.686;2024-03-17T20:58:09;100656.28;;;12.35;100.00
60099;BME280;62818;49.394;8.686;2024-03-17T21:03:10;100659.53;;;12.60;100.00
60099;BME280;62818;49.394;8.686;2024-03-17T21:08:10;100641.41;;;12.26;100.00
60099;BME280;62818;49.394;8.686;2024-03-17T21:13:16;100650.84;;;12.29;100.00
60099;BME280;62818;49.394;8.686;2024-03-17T21:18:16;100645.41;;;12.74;100.00
60099;BME280;62818;49.394;8.686;2024-03-17T21:23:19;100636.53;;;12.30;100.00
60099;BME280;62818;49.394;8.686;2024-03-17T21:28:19;100643.16;;;12.34;100.00
60099;BME280;62818;49.394;8.686;2024-03-17T21:33:20;100636.09;;;12.04;100.00
60099;BME280;62818;49.394;8.686;2024-03-17T21:38:20;100630.88;;;12.33;100.00
60099;BME280;62818;49.394;8.686;2024-03-17T21:43:21;100614.13;;;12.61;100.00
60099;BME280;62818;49.394;8.686;2024-03-17T21:48:22;100607.44;;;11.76;100.00
60099;BME280;62818;49.394;8.686;2024-03-17T21:53:22;100599.53;;;11.91;100.00
60099;BME280;62818;49.394;8.686;2024-03-17T21:58:23;100594.25;;;12.06;100.00
60099;BME280;62818;49.394;8.686;2024-03-17T22:03:24;100594.22;;;12.43;100.00
60099;BME280;62818;49.394;8.686;2024-03-17T22:08:25;100590.06;;;12.26;100.00
60099;BME280;62818;49.394;8.686;2024-03-17T22:13:27;100587.41;;;12.26;100.00
60099;BME280;62818;49.394;8.686;2024-03-17T22:18:30;100585.66;;;11.81;100.00
60099;BME280;62818;49.394;8.686;2024-03-17T22:23:31;100585.69;;;11.50;100.00
60099;BME280;62818;49.394;8.686;2024-03-17T22:28:32;100584.22;;;12.16;100.00
60099;BME280;62818;49.394;8.686;2024-03-17T22:33:34;100578.94;;;12.08;100.00
60099;BME280;62818;49.394;8.686;2024-03-17T22:38:36;100577.28;;;12.44;100.00
60099;BME280;62818;49.394;8.686;2024-03-17T22:43:41;100575.72;;;11.98;100.00
60099;BME280;62818;49.394;8.686;2024-03-17T22:48:42;100574.13;;;11.43;100.00
60099;BME280;62818;49.394;8.686;2024-03-17T22:53:43;100566.09;;;11.29;100.00
60099;BME280;62818;49.394;8.686;2024-03-17T22:58:44;100563.53;;;11.43;100.00
60099;BME280;62818;49.394;8.686;2024-03-17T23:03:46;100563.22;;;11.38;100.00
60099;BME280;62818;49.394;8.686;2024-03-17T23:08:46;100559.50;;;12.44;100.00
60099;BME280;62818;49.394;8.686;2024-03-17T23:13:47;100559.84;;;11.44;100.00
60099;BME280;62818;49.394;8.686;2024-03-17T23:18:48;100555.88;;;11.71;100.00
60099;BME280;62818;49.394;8.686;2024-03-17T23:23:49;100548.59;;;11.65;100.00
60099;BME280;62818;49.394;8.686;2024-03-17T23:28:49;100540.13;;;11.69;100.00
60099;BME280;62818;49.394;8.686;2024-03-17T23:33:49;100540.97;;;11.16;100.00
60099;BME280;62818;49.394;8.686;2024-03-17T23:38:50;100537.69;;;11.82;100.00
60099;BME280;62818;49.394;8.686;2024-03-17T23:43:53;100534.50;;;11.19;100.00
60099;BME280;62818;49.394;8.686;2024-03-17T23:48:53;100535.81;;;11.68;100.00
60099;BME280;62818;49.394;8.686;2024-03-17T23:53:54;100534.94;;;11.90;100.00
60099;BME280;62818;49.394;8.686;2024-03-17T23:58:54;100521.63;;;11.53;100.00
